Time;durP1;ratioP1;P1;durP2;ratioP2;P2;SDS_P1;SDS_P2;PMS_P1;PMS_P2;Temp;Humidity;BMP_temperature;BMP_pressure;BME280_temperature;BME280_humidity;BME280_pressure;Samples;Min_cycle;Max_cycle;Signal;HPM_P1;HPM_P2
2024/02/28 00:00:16;;;;;;;32.75;20.33;;;;;;;8.07;70.30;96586.72;4920951;29;20052;-77
2024/02/28 00:02:45;;;;;;;32.95;20.38;;;;;;;8.02;70.98;96589.00;4921355;29;20136;-78
2024/02/28 00:05:13;;;;;;;33.28;21.38;;;;;;;7.97;72.70;96586.09;4920907;29;20087;-79
2024/02/28 00:07:40;;;;;;;40.17;22.52;;;;;;;7.95;71.42;96591.44;4921005;29;20131;-80
2024/02/28 00:10:09;;;;;;;35.55;22.42;;;;;;;7.94;71.22;96589.03;4922215;29;20484;-79
2024/02/28 00:12:37;;;;;;;39.55;24.42;;;;;;;7.90;70.67;96587.72;4923129;29;20122;-78
2024/02/28 00:15:10;;;;;;;36.38;21.95;;;;;;;7.88;70.94;96592.28;4922776;29;20044;-78
2024/02/28 00:17:39;;;;;;;;;;;;;;;7.92;72.11;96596.16;4922431;29;20504;-79
2024/02/28 00:20:11;;;;;;;34.35;21.50;;;;;;;7.97;70.61;96591.28;4921549;29;19936;-79
2024/02/28 00:22:39;;;;;;;36.88;22.15;;;;;;;7.98;72.63;96596.31;4921812;29;20052;-78
2024/02/28 00:25:07;;;;;;;36.05;22.15;;;;;;;7.99;71.92;96587.53;4920769;29;20048;-80
2024/02/28 00:27:35;;;;;;;35.50;22.58;;;;;;;7.99;72.42;96584.94;4921319;29;20052;-80
2024/02/28 00:30:06;;;;;;;36.95;23.00;;;;;;;8.03;73.88;96590.63;4922025;29;20053;-79
2024/02/28 00:32:33;;;;;;;44.63;24.88;;;;;;;8.10;75.03;96586.38;4921445;29;20135;-78
2024/02/28 00:35:01;;;;;;;36.72;22.67;;;;;;;8.15;75.63;96585.88;4920556;29;20598;-77
2024/02/28 00:37:30;;;;;;;37.03;23.30;;;;;;;8.15;74.29;96591.88;4921175;29;20086;-78
2024/02/28 00:39:58;;;;;;;42.28;22.92;;;;;;;8.17;74.28;96589.94;4920670;29;20056;-78
2024/02/28 00:42:27;;;;;;;40.65;24.60;;;;;;;8.14;73.08;96594.66;4920801;29;20337;-77
2024/02/28 00:44:54;;;;;;;33.25;21.35;;;;;;;8.14;74.47;96592.88;4920257;29;20059;-79
2024/02/28 00:47:22;;;;;;;35.58;21.98;;;;;;;8.16;75.03;96587.50;4920760;29;20076;-79
2024/02/28 00:49:49;;;;;;;38.03;23.98;;;;;;;8.14;74.04;96589.47;4920760;29;20067;-77
2024/02/28 00:52:17;;;;;;;34.22;21.38;;;;;;;8.14;74.96;96592.88;4920969;29;20056;-78
2024/02/28 00:54:46;;;;;;;36.03;23.30;;;;;;;8.13;74.92;96593.81;4919673;29;20144;-79
2024/02/28 00:57:14;;;;;;;38.47;24.10;;;;;;;8.14;76.21;96587.66;4920276;29;20044;-77
2024/02/28 00:59:42;;;;;;;37.53;23.27;;;;;;;8.14;74.81;96587.66;4965522;23;20062;-79
2024/02/28 01:02:10;;;;;;;41.13;23.80;;;;;;;8.12;74.95;96583.63;4917294;29;20501;-79
2024/02/28 01:04:37;;;;;;;40.78;23.75;;;;;;;8.11;74.32;96590.63;4917355;29;20074;-79
2024/02/28 01:07:05;;;;;;;34.35;22.60;;;;;;;8.05;73.20;96593.88;4917677;29;20081;-79
2024/02/28 01:09:32;;;;;;;38.30;22.50;;;;;;;8.02;73.87;96583.78;4917591;29;20052;-79
2024/02/28 01:12:01;;;;;;;39.15;22.70;;;;;;;8.02;72.78;96596.78;4917630;29;20052;-79
2024/02/28 01:14:29;;;;;;;36.47;22.35;;;;;;;8.02;72.37;96591.59;4917349;29;20048;-79
2024/02/28 01:16:56;;;;;;;39.15;23.20;;;;;;;7.98;71.71;96595.50;4917316;29;20085;-80
2024/02/28 01:19:24;;;;;;;36.58;23.25;;;;;;;7.96;74.24;96595.69;4917191;29;20079;-79
2024/02/28 01:21:52;;;;;;;36.92;22.55;;;;;;;8.02;75.74;96594.19;4917054;29;20071;-79
2024/02/28 01:24:19;;;;;;;34.13;21.60;;;;;;;8.03;73.61;96594.03;4917078;29;20056;-79
2024/02/28 01:26:48;;;;;;;36.63;21.67;;;;;;;8.05;74.37;96596.47;4932587;29;20096;-79
2024/02/28 01:29:16;;;;;;;38.00;22.20;;;;;;;8.01;72.63;96593.38;4940428;29;20055;-79
2024/02/28 01:31:44;;;;;;;38.72;23.15;;;;;;;7.98;71.99;96595.50;4939721;29;20046;-80
2024/02/28 01:34:12;;;;;;;33.83;20.75;;;;;;;7.92;71.40;96593.56;4934821;29;20111;-79
2024/02/28 01:36:39;;;;;;;36.63;21.38;;;;;;;7.87;71.68;96588.03;4919448;29;20067;-79
2024/02/28 01:39:07;;;;;;;37.22;22.10;;;;;;;7.84;71.35;96595.19;4918214;29;20131;-78
2024/02/28 01:41:34;;;;;;;37.60;22.70;;;;;;;7.82;71.15;96585.94;4917947;29;20079;-79
2024/02/28 01:44:02;;;;;;;33.50;20.40;;;;;;;7.85;73.70;96593.44;4917469;29;20406;-79
2024/02/28 01:46:32;;;;;;;37.45;22.20;;;;;;;7.91;74.23;96594.53;4916955;29;20082;-79
2024/02/28 01:49:00;;;;;;;35.45;21.70;;;;;;;7.94;72.68;96597.63;4917083;29;20135;-79
2024/02/28 01:51:28;;;;;;;34.63;19.35;;;;;;;7.95;72.03;96601.03;4916798;29;20055;-79
2024/02/28 01:53:57;;;;;;;33.58;21.27;;;;;;;7.99;73.59;96612.72;4917009;29;20497;-79
2024/02/28 01:56:25;;;;;;;30.50;18.55;;;;;;;8.00;73.62;96612.56;4916643;29;20504;-79
2024/02/28 01:58:54;;;;;;;32.42;20.35;;;;;;;8.03;75.54;96614.00;4916748;29;20580;-79
2024/02/28 02:01:21;;;;;;;37.08;21.77;;;;;;;8.09;76.86;96621.16;4916504;29;20055;-79
2024/02/28 02:03:50;;;;;;;32.15;19.50;;;;;;;8.09;76.10;96618.53;4917307;29;20103;-79
2024/02/28 02:06:19;;;;;;;34.78;20.88;;;;;;;8.10;76.69;96621.94;4916140;29;20054;-79
2024/02/28 02:08:47;;;;;;;36.58;21.88;;;;;;;8.17;77.70;96620.31;4916690;29;20056;-80
2024/02/28 02:11:17;;;;;;;34.70;23.23;;;;;;;8.21;77.66;96638.00;4916445;29;20087;-79
2024/02/28 02:13:49;;;;;;;33.08;20.77;;;;;;;8.24;76.91;96639.44;4917694;29;20151;-79
2024/02/28 02:16:17;;;;;;;38.83;22.20;;;;;;;8.22;75.08;96644.00;4927578;29;20058;-79
2024/02/28 02:18:45;;;;;;;36.80;22.08;;;;;;;8.14;74.04;96647.44;4917010;29;20143;-80
2024/02/28 02:21:18;;;;;;;36.65;21.90;;;;;;;8.03;72.79;96650.38;4916712;29;20060;-79
2024/02/28 02:23:47;;;;;;;34.88;22.45;;;;;;;7.97;73.62;96653.63;4916660;29;20062;-79
2024/02/28 02:26:14;;;;;;;39.15;22.88;;;;;;;7.91;72.22;96656.88;4916387;29;20056;-79
2024/02/28 02:28:42;;;;;;;36.88;22.55;;;;;;;7.82;71.63;96654.25;4916263;29;20098;-79
2024/02/28 02:31:11;;;;;;;36.17;21.40;;;;;;;7.82;73.96;96663.84;4916216;29;20052;-79
2024/02/28 02:33:39;;;;;;;36.17;22.13;;;;;;;7.84;72.80;96667.91;4916437;29;20087;-80
2024/02/28 02:36:07;;;;;;;36.47;22.13;;;;;;;7.87;73.82;96669.38;4916029;29;20060;-79
2024/02/28 02:38:35;;;;;;;36.22;22.15;;;;;;;7.90;74.13;96670.84;4916360;29;20052;-79
2024/02/28 02:41:04;;;;;;;34.38;21.48;;;;;;;7.91;73.78;96682.84;4916542;29;20112;-79
2024/02/28 02:43:31;;;;;;;36.85;21.88;;;;;;;7.90;73.60;96681.22;4915879;29;20112;-80
2024/02/28 02:45:59;;;;;;;37.80;22.85;;;;;;;7.87;72.51;96684.13;4916189;29;20044;-79
2024/02/28 02:48:26;;;;;;;38.28;23.92;;;;;;;7.79;72.09;96679.78;4917104;29;20416;-79
2024/02/28 02:50:54;;;;;;;35.60;22.95;;;;;;;7.74;71.36;96682.03;4919823;29;20087;-80
2024/02/28 02:53:22;;;;;;;37.65;22.65;;;;;;;7.70;73.56;96689.34;4921157;29;20433;-79
2024/02/28 02:55:49;;;;;;;37.97;22.77;;;;;;;7.71;75.39;96696.16;4920534;29;20094;-79
2024/02/28 02:58:18;;;;;;;38.42;22.05;;;;;;;7.72;73.26;96697.78;4919443;29;20154;-80
2024/02/28 03:00:46;;;;;;;34.90;22.65;;;;;;;7.72;73.03;96691.75;4919947;29;20141;-79
2024/02/28 03:03:13;;;;;;;38.40;22.90;;;;;;;7.69;72.46;96692.91;4919783;29;20052;-80
2024/02/28 03:05:41;;;;;;;36.10;21.60;;;;;;;7.71;73.84;96690.94;4919673;29;20134;-79
2024/02/28 03:08:09;;;;;;;34.53;22.00;;;;;;;7.74;74.03;96698.44;4919288;29;20048;-80
2024/02/28 03:10:37;;;;;;;36.50;22.27;;;;;;;7.76;73.84;96699.09;4919284;29;20052;-79
2024/02/28 03:13:06;;;;;;;36.67;22.95;;;;;;;7.77;74.63;96699.88;4919597;29;20135;-80
2024/02/28 03:15:35;;;;;;;35.55;22.75;;;;;;;7.80;75.87;96702.97;4919171;29;20052;-79
2024/02/28 03:18:03;;;;;;;36.33;21.42;;;;;;;7.87;76.70;96705.75;4919474;29;20052;-80
2024/02/28 03:20:31;;;;;;;37.20;22.67;;;;;;;7.89;74.90;96706.38;4919182;29;20060;-79
2024/02/28 03:22:58;;;;;;;37.22;23.48;;;;;;;7.86;75.43;96711.09;4919464;29;20075;-79
2024/02/28 03:25:26;;;;;;;37.47;23.17;;;;;;;7.86;76.55;96711.91;4918759;29;20546;-79
2024/02/28 03:27:54;;;;;;;39.95;24.15;;;;;;;7.86;75.63;96714.50;4919151;29;20063;-79
2024/02/28 03:30:22;;;;;;;37.00;23.25;;;;;;;7.86;75.59;96718.88;4919488;29;20048;-79
2024/02/28 03:32:51;;;;;;;39.55;22.77;;;;;;;7.81;73.20;96725.38;4919103;29;20064;-79
2024/02/28 03:35:18;;;;;;;36.05;22.45;;;;;;;7.75;73.56;96726.00;4918603;29;20052;-78
2024/02/28 03:37:46;;;;;;;38.63;22.80;;;;;;;7.72;75.20;96731.53;4919142;29;20055;-79
2024/02/28 03:40:14;;;;;;;39.25;23.02;;;;;;;7.70;75.71;96736.06;4918832;29;20055;-79
2024/02/28 03:42:42;;;;;;;39.75;21.85;;;;;;;7.69;74.40;96733.63;4922347;29;20420;-80
2024/02/28 03:45:09;;;;;;;36.85;22.42;;;;;;;7.67;73.56;96741.56;4929434;29;20056;-80
2024/02/28 03:47:37;;;;;;;41.47;23.45;;;;;;;7.64;73.61;96742.72;4927775;29;20440;-79
2024/02/28 03:50:07;;;;;;;36.55;22.35;;;;;;;7.62;72.81;96754.22;4919288;29;20092;-79
2024/02/28 03:52:35;;;;;;;38.15;22.25;;;;;;;7.60;73.62;96748.38;4918905;29;20056;-80
2024/02/28 03:55:03;;;;;;;39.03;22.35;;;;;;;7.57;73.03;96751.31;4918741;29;20099;-80
2024/02/28 03:57:30;;;;;;;39.08;22.63;;;;;;;7.54;72.83;96746.41;4918869;29;20056;-79
2024/02/28 03:59:58;;;;;;;42.10;22.65;;;;;;;7.53;74.45;96750.00;4917429;29;20056;-79
2024/02/28 04:02:25;;;;;;;38.10;23.20;;;;;;;7.55;73.34;96750.66;4918538;29;20100;-80
2024/02/28 04:04:53;;;;;;;35.72;22.52;;;;;;;7.48;72.36;96749.63;4918571;29;20052;-79
2024/02/28 04:07:22;;;;;;;41.90;23.30;;;;;;;7.45;72.87;96750.78;4918813;29;20048;-79
2024/02/28 04:09:49;;;;;;;37.20;23.05;;;;;;;7.45;73.38;96757.75;4918695;29;20083;-79
2024/02/28 04:12:20;;;;;;;37.40;22.70;;;;;;;7.37;75.15;96759.38;4918574;29;20056;-79
2024/02/28 04:14:47;;;;;;;40.05;22.73;;;;;;;7.34;75.75;96759.66;4918481;29;20063;-79
2024/02/28 04:17:15;;;;;;;38.58;23.23;;;;;;;7.33;74.15;96758.06;4918273;29;20048;-79
2024/02/28 04:19:42;;;;;;;44.97;24.65;;;;;;;7.27;74.71;96758.66;4918002;29;20131;-79
2024/02/28 04:22:10;;;;;;;43.60;24.75;;;;;;;7.25;73.47;96750.22;4918373;29;20076;-79
2024/02/28 04:24:39;;;;;;;40.03;24.88;;;;;;;7.20;72.99;96753.28;4932484;29;20056;-79
2024/02/28 04:27:09;;;;;;;45.03;25.35;;;;;;;7.13;73.02;96751.50;4918095;29;20059;-79
2024/02/28 04:29:37;;;;;;;41.58;24.27;;;;;;;7.07;73.09;96749.53;4918067;29;20543;-79
2024/02/28 04:32:05;;;;;;;40.47;23.75;;;;;;;7.07;73.99;96752.13;4917611;29;20055;-79
2024/02/28 04:34:32;;;;;;;42.42;25.23;;;;;;;7.06;74.08;96755.66;4917657;29;20076;-79
2024/02/28 04:37:00;;;;;;;40.45;23.83;;;;;;;7.03;73.50;96758.59;4918167;29;20052;-79
2024/02/28 04:39:27;;;;;;;39.65;23.10;;;;;;;6.99;73.38;96761.47;4917797;29;20051;-79
2024/02/28 04:41:56;;;;;;;42.28;24.63;;;;;;;7.00;73.59;96762.31;4917657;29;20051;-80
2024/02/28 04:44:24;;;;;;;39.38;22.35;;;;;;;7.02;74.05;96760.38;4917399;29;20056;-79
2024/02/28 04:46:52;;;;;;;40.92;23.13;;;;;;;7.06;73.74;96760.84;4917712;29;20056;-79
2024/02/28 04:49:19;;;;;;;42.50;22.88;;;;;;;7.06;73.28;96760.84;4917554;29;20056;-79
2024/02/28 04:51:48;;;;;;;40.28;22.70;;;;;;;7.05;72.93;96767.03;4917454;29;20052;-80
2024/02/28 04:54:16;;;;;;;44.95;25.33;;;;;;;7.01;73.87;96764.72;4917427;29;20048;-80
2024/02/28 04:56:44;;;;;;;45.72;25.65;;;;;;;6.98;73.51;96772.81;4917268;29;20051;-79
2024/02/28 04:59:13;;;;;;;40.92;24.35;;;;;;;7.00;74.84;96773.47;4917442;29;20094;-79
2024/02/28 05:01:42;;;;;;;44.70;25.15;;;;;;;7.06;76.30;96772.03;4917276;29;20476;-79
2024/02/28 05:04:10;;;;;;;41.60;25.55;;;;;;;7.15;77.22;96775.47;4917775;29;20048;-80
2024/02/28 05:06:38;;;;;;;45.35;25.67;;;;;;;7.25;78.47;96783.16;4917378;29;20505;-79
2024/02/28 05:09:07;;;;;;;40.92;24.60;;;;;;;7.26;76.55;96783.00;4917297;29;20064;-79
2024/02/28 05:11:35;;;;;;;44.33;24.15;;;;;;;7.22;74.87;96781.69;4916790;29;20449;-79
2024/02/28 05:14:02;;;;;;;43.88;25.13;;;;;;;7.16;74.40;96782.31;4917352;29;20151;-80
2024/02/28 05:16:32;;;;;;;41.42;23.75;;;;;;;7.15;75.76;96786.69;4917046;29;20056;-79
2024/02/28 05:18:59;;;;;;;45.33;25.67;;;;;;;7.23;77.60;96783.31;4916867;29;20051;-80
2024/02/28 05:21:27;;;;;;;41.80;24.38;;;;;;;7.27;77.31;96794.19;4917107;29;20052;-80
2024/02/28 05:23:55;;;;;;;49.22;27.55;;;;;;;7.28;77.44;96794.03;4916724;29;20048;-79
2024/02/28 05:26:23;;;;;;;41.03;24.65;;;;;;;7.36;78.31;96803.63;4916984;29;20055;-79
2024/02/28 05:28:50;;;;;;;43.13;25.52;;;;;;;7.34;77.70;96806.38;4917084;29;20156;-79
2024/02/28 05:31:21;;;;;;;52.13;27.70;;;;;;;7.31;78.35;96806.69;4917405;29;20052;-80
2024/02/28 05:33:51;;;;;;;44.33;24.33;;;;;;;7.26;76.48;96808.13;4916985;29;20106;-79
2024/02/28 05:36:19;;;;;;;46.83;27.73;;;;;;;7.18;77.12;96806.31;4916682;29;20056;-80
2024/02/28 05:38:47;;;;;;;44.78;25.75;;;;;;;7.16;77.57;96809.06;4916665;29;20080;-79
2024/02/28 05:41:14;;;;;;;45.17;26.30;;;;;;;7.18;77.62;96814.09;4916597;29;20576;-79
2024/02/28 05:43:42;;;;;;;44.15;25.63;;;;;;;7.16;77.41;96805.66;4916921;29;20075;-79
2024/02/28 05:46:09;;;;;;;46.20;25.58;;;;;;;7.10;77.65;96808.84;4916679;29;20080;-79
2024/02/28 05:48:37;;;;;;;49.80;25.88;;;;;;;7.10;78.11;96814.84;4916527;29;20063;-79
2024/02/28 05:51:06;;;;;;;49.75;28.00;;;;;;;7.10;76.96;96812.25;4916540;29;20264;-79
2024/02/28 05:53:35;;;;;;;41.00;23.65;;;;;;;7.09;76.95;96815.84;4916282;29;20087;-79
2024/02/28 05:56:04;;;;;;;43.20;24.70;;;;;;;7.10;77.23;96820.03;4916596;29;20076;-79
2024/02/28 05:58:31;;;;;;;49.00;27.17;;;;;;;7.08;76.69;96818.56;4916761;29;20083;-79
2024/02/28 06:00:59;;;;;;;53.80;31.40;;;;;;;7.04;77.74;96827.63;4916332;29;20060;-80
2024/02/28 06:03:27;;;;;;;52.58;28.60;;;;;;;7.01;76.86;96826.97;4916258;29;20436;-79
2024/02/28 06:05:57;;;;;;;42.25;25.88;;;;;;;6.97;76.94;96830.84;4916037;29;20063;-79
2024/02/28 06:08:26;;;;;;;50.78;27.42;;;;;;;6.95;78.49;96842.34;4916309;29;20044;-79
2024/02/28 06:10:54;;;;;;;51.97;27.75;;;;;;;6.94;78.42;96841.53;4916273;29;20410;-79
2024/02/28 06:13:21;;;;;;;47.95;26.42;;;;;;;6.89;78.18;96848.97;4916128;29;20045;-79
2024/02/28 06:15:49;;;;;;;50.42;27.17;;;;;;;6.83;76.85;96851.34;4916249;29;20087;-79
2024/02/28 06:18:17;;;;;;;50.33;25.80;;;;;;;6.80;76.15;96860.25;4915979;29;20054;-79
2024/02/28 06:20:45;;;;;;;44.90;26.30;;;;;;;6.79;76.18;96861.19;4916380;29;20111;-79
2024/02/28 06:23:12;;;;;;;47.53;26.20;;;;;;;6.82;76.51;96858.28;4915700;29;20083;-79
2024/02/28 06:25:51;;;;;;;50.03;25.77;;;;;;;6.82;76.66;96866.06;4916084;29;20139;-80
2024/02/28 06:28:19;;;;;;;48.40;26.13;;;;;;;6.86;77.68;96870.00;4916644;29;20076;-79
2024/02/28 06:30:46;;;;;;;48.38;26.52;;;;;;;6.94;78.90;96883.03;4916097;29;20495;-79
2024/02/28 06:33:14;;;;;;;48.63;25.17;;;;;;;7.02;78.54;96879.69;4929959;29;20139;-80
2024/02/28 06:35:42;;;;;;;48.15;25.20;;;;;;;7.09;79.12;96887.66;4916084;29;20056;-79
2024/02/28 06:38:09;;;;;;;46.35;23.13;;;;;;;7.10;78.52;96891.88;4917224;29;20059;-79
2024/02/28 06:40:37;;;;;;;46.03;26.02;;;;;;;7.07;78.56;96897.38;4920111;29;20520;-79
2024/02/28 06:43:06;;;;;;;47.72;25.02;;;;;;;7.12;78.97;96910.69;4939815;29;20047;-80
2024/02/28 06:45:35;;;;;;;45.42;24.08;;;;;;;7.13;77.72;96907.16;4939805;29;20036;-79
2024/02/28 06:48:03;;;;;;;45.67;25.35;;;;;;;7.11;76.51;96909.06;4939930;29;20036;-79
2024/02/28 06:50:31;;;;;;;40.30;22.70;;;;;;;7.06;76.05;96916.47;4927550;29;20095;-79
2024/02/28 06:52:58;;;;;;;44.45;24.05;;;;;;;7.06;78.00;96914.69;4918527;29;20247;-80
2024/02/28 06:55:26;;;;;;;40.50;22.33;;;;;;;7.07;77.31;96912.94;4916835;29;20131;-79
2024/02/28 06:57:54;;;;;;;44.72;22.90;;;;;;;7.07;77.32;96915.53;4923616;29;20560;-80
2024/02/28 07:00:23;;;;;;;40.40;22.38;;;;;;;7.08;77.64;96922.34;4946333;23;20519;-78
2024/02/28 07:02:50;;;;;;;43.03;23.17;;;;;;;7.13;78.13;96922.72;4935098;29;20052;-78
2024/02/28 07:05:18;;;;;;;43.38;24.02;;;;;;;7.16;77.47;96922.41;4934529;29;20504;-77
2024/02/28 07:07:46;;;;;;;39.47;22.60;;;;;;;7.09;76.11;96921.38;4934795;29;20062;-78
2024/02/28 07:10:13;;;;;;;39.13;23.13;;;;;;;7.07;77.14;96924.13;4934616;29;20055;-78
2024/02/28 07:12:41;;;;;;;39.90;22.77;;;;;;;7.09;77.21;96924.78;4935134;29;20158;-78
2024/02/28 07:15:09;;;;;;;39.45;21.77;;;;;;;7.07;77.02;96925.91;4934839;29;20051;-78
2024/02/28 07:17:38;;;;;;;41.35;22.92;;;;;;;7.10;78.22;96938.56;4934502;29;20079;-78
2024/02/28 07:20:06;;;;;;;41.17;20.90;;;;;;;7.13;77.50;96931.31;4934696;29;20102;-78
2024/02/28 07:22:34;;;;;;;34.70;20.23;;;;;;;7.10;76.68;96933.38;4934574;29;20051;-78
2024/02/28 07:25:02;;;;;;;38.03;22.67;;;;;;;7.00;77.10;96939.47;4934847;29;20424;-78
2024/02/28 07:27:29;;;;;;;35.50;19.95;;;;;;;6.93;76.10;96946.25;4934665;29;20059;-78
2024/02/28 07:29:57;;;;;;;32.03;19.77;;;;;;;6.86;76.42;96944.38;4934903;29;20111;-77
2024/02/28 07:32:25;;;;;;;34.35;20.25;;;;;;;6.85;78.14;96956.53;4934715;29;20058;-78
2024/02/28 07:34:53;;;;;;;34.13;21.05;;;;;;;6.82;76.51;96951.63;4935595;29;20059;-77
2024/02/28 07:37:21;;;;;;;38.20;21.42;;;;;;;6.78;76.78;96958.09;4937785;29;20051;-78
2024/02/28 07:39:48;;;;;;;37.38;22.52;;;;;;;6.82;78.33;96956.81;4937648;29;20107;-78
2024/02/28 07:42:17;;;;;;;39.65;22.95;;;;;;;6.87;78.22;96967.56;4937808;29;20055;-77
2024/02/28 07:44:45;;;;;;;36.15;20.77;;;;;;;6.86;76.73;96962.53;4937624;29;20066;-77
2024/02/28 07:47:14;;;;;;;36.50;20.95;;;;;;;6.84;77.73;96962.66;4937649;29;20055;-77
2024/02/28 07:49:41;;;;;;;36.88;21.10;;;;;;;6.86;77.59;96958.16;4937609;29;20058;-78
2024/02/28 07:52:10;;;;;;;35.80;21.40;;;;;;;6.88;78.07;96958.81;4937530;29;20079;-77
2024/02/28 07:54:38;;;;;;;39.28;22.80;;;;;;;6.90;78.15;96959.50;4937913;29;20048;-78
2024/02/28 07:57:07;;;;;;;40.88;22.90;;;;;;;6.87;76.68;96959.81;4937766;29;20054;-78
2024/02/28 07:59:39;;;;;;;39.58;24.55;;;;;;;6.90;78.21;96964.69;4937380;29;20075;-77
2024/02/28 08:02:09;;;;;;;39.25;22.10;;;;;;;6.99;78.33;96968.16;4945935;29;20062;-78
2024/02/28 08:04:37;;;;;;;40.85;23.08;;;;;;;7.04;78.23;96978.06;4946457;29;20072;-78
2024/02/28 08:07:05;;;;;;;36.22;22.45;;;;;;;7.09;79.07;96978.47;4942341;29;20055;-78
2024/02/28 08:09:34;;;;;;;38.60;23.30;;;;;;;7.08;77.99;96977.63;4938682;29;20055;-78
2024/02/28 08:12:01;;;;;;;41.67;23.73;;;;;;;7.06;77.54;96973.56;4938762;29;20059;-77
2024/02/28 08:14:29;;;;;;;41.55;24.48;;;;;;;6.99;75.82;96974.16;4938017;29;20476;-78
2024/02/28 08:16:56;;;;;;;42.05;23.80;;;;;;;6.89;75.87;96970.84;4937063;29;20086;-78
2024/02/28 08:19:24;;;;;;;41.67;21.92;;;;;;;6.89;77.08;96983.00;4937450;29;20048;-78
2024/02/28 08:21:51;;;;;;;42.53;24.20;;;;;;;6.92;77.28;96988.69;4937195;29;20059;-78
2024/02/28 08:24:19;;;;;;;38.67;22.23;;;;;;;6.90;76.06;96982.81;4936892;29;20052;-78
2024/02/28 08:26:48;;;;;;;40.42;22.02;;;;;;;6.90;76.78;96984.63;4949807;29;20048;-77
2024/02/28 08:29:16;;;;;;;40.78;23.02;;;;;;;6.93;76.63;96986.91;4960461;29;20031;-77
2024/02/28 08:31:45;;;;;;;45.83;24.50;;;;;;;6.89;75.46;96983.00;4960159;29;20052;-77
2024/02/28 08:34:12;;;;;;;41.83;23.45;;;;;;;6.83;75.68;96984.41;4945946;29;20055;-78
2024/02/28 08:36:40;;;;;;;41.88;24.15;;;;;;;6.86;77.54;96986.69;4936931;29;20063;-78
2024/02/28 08:39:09;;;;;;;44.15;24.77;;;;;;;6.93;77.53;96995.50;4936803;29;20052;-78
2024/02/28 08:41:37;;;;;;;44.88;25.10;;;;;;;6.89;76.09;96985.59;4936671;29;20047;-78
2024/02/28 08:44:06;;;;;;;42.78;23.67;;;;;;;6.81;75.16;96991.50;4936720;29;20055;-78
2024/02/28 08:46:33;;;;;;;48.00;26.17;;;;;;;6.75;75.34;96986.91;4936043;29;20139;-77
2024/02/28 08:49:01;;;;;;;46.22;23.90;;;;;;;6.79;77.58;96996.03;4936861;29;20059;-78
2024/02/28 08:51:28;;;;;;;48.45;25.42;;;;;;;6.86;78.05;96998.84;4936734;29;20052;-78
2024/02/28 08:53:57;;;;;;;45.92;23.90;;;;;;;6.85;76.37;97003.22;4936639;29;20056;-78
2024/02/28 08:56:25;;;;;;;50.75;24.90;;;;;;;6.78;75.68;97004.78;4936343;29;20094;-78
2024/02/28 08:58:52;;;;;;;45.40;24.02;;;;;;;6.77;77.33;97000.53;4936240;29;20503;-78
2024/02/28 09:01:21;;;;;;;48.13;25.38;;;;;;;6.81;77.36;97001.88;4936475;29;20518;-78
2024/02/28 09:03:49;;;;;;;49.38;25.40;;;;;;;6.80;76.21;97003.66;4936330;29;20075;-78
2024/02/28 09:06:16;;;;;;;47.88;26.08;;;;;;;6.77;76.28;97005.72;4937203;29;20058;-78
2024/02/28 09:08:44;;;;;;;50.97;26.92;;;;;;;6.76;75.94;97015.28;4936575;29;20055;-79
2024/02/28 09:11:12;;;;;;;43.10;25.02;;;;;;;6.80;76.63;97006.25;4952113;29;20043;-78
2024/02/28 09:13:40;;;;;;;46.97;25.05;;;;;;;6.85;78.16;97008.41;4958718;29;20071;-78
2024/02/28 09:16:07;;;;;;;49.25;27.08;;;;;;;6.83;76.74;97007.72;4958877;29;20051;-77
2024/02/28 09:18:36;;;;;;;46.55;25.92;;;;;;;6.79;75.57;97009.00;4944867;29;20051;-78
2024/02/28 09:21:04;;;;;;;52.65;25.80;;;;;;;6.74;74.85;97016.41;4937939;29;20571;-78
2024/02/28 09:23:32;;;;;;;51.38;25.63;;;;;;;6.66;75.20;97011.94;4937212;29;20063;-78
2024/02/28 09:26:03;;;;;;;46.80;26.67;;;;;;;6.60;75.02;97008.16;4937173;29;20559;-78
2024/02/28 09:28:31;;;;;;;44.88;24.40;;;;;;;6.60;77.09;97010.75;4936676;29;20114;-78
2024/02/28 09:30:58;;;;;;;49.28;26.10;;;;;;;6.73;78.63;97019.94;4936477;29;20087;-78
2024/02/28 09:33:26;;;;;;;48.75;24.02;;;;;;;6.78;77.71;97017.75;4936137;29;20058;-78
2024/02/28 09:35:55;;;;;;;51.17;27.27;;;;;;;6.81;76.45;97015.66;4936006;29;20512;-78
2024/02/28 09:38:23;;;;;;;49.08;25.90;;;;;;;6.81;75.60;97013.06;4936251;29;20052;-78
2024/02/28 09:40:50;;;;;;;50.97;26.27;;;;;;;6.80;76.46;97021.00;4935982;29;20083;-78
2024/02/28 09:43:29;;;;;;;48.42;25.77;;;;;;;6.86;76.51;97027.34;4936149;29;20135;-78
2024/02/28 09:46:00;;;;;;;49.00;25.25;;;;;;;6.95;78.25;97023.88;4936173;29;20059;-78
2024/02/28 09:48:29;;;;;;;50.13;25.77;;;;;;;7.01;78.18;97034.47;4935759;29;20051;-78
2024/02/28 09:50:58;;;;;;;48.03;24.38;;;;;;;7.01;75.96;97034.47;4936040;29;20059;-78
2024/02/28 09:53:27;;;;;;;43.80;22.98;;;;;;;6.93;75.90;97037.00;4935422;29;20088;-77
2024/02/28 09:55:54;;;;;;;48.97;24.60;;;;;;;6.94;75.81;97036.03;4935453;29;20492;-78
2024/02/28 09:58:24;;;;;;;42.63;23.23;;;;;;;6.92;74.97;97037.16;4935114;29;20059;-78
2024/02/28 10:00:56;;;;;;;40.63;23.40;;;;;;;6.88;74.62;97039.22;4935498;29;20051;-78
2024/02/28 10:03:25;;;;;;;;;;;;;;;6.88;74.70;97039.22;4936067;29;20052;-78
2024/02/28 10:05:52;;;;;;;41.97;21.85;;;;;;;6.88;74.57;97041.00;4935582;29;19989;-78
2024/02/28 10:08:21;;;;;;;45.08;22.52;;;;;;;6.85;73.86;97043.91;4935485;29;20111;-75
2024/02/28 10:10:49;;;;;;;40.65;21.77;;;;;;;6.78;73.82;97048.84;4935621;29;20051;-78
2024/02/28 10:13:17;;;;;;;42.85;23.13;;;;;;;6.75;74.74;97049.13;4935347;29;20051;-78
2024/02/28 10:15:45;;;;;;;39.17;21.23;;;;;;;6.83;76.16;97056.19;4935247;29;20095;-78
2024/02/28 10:18:13;;;;;;;39.65;22.80;;;;;;;6.94;77.20;97058.56;4937090;29;20071;-78
2024/02/28 10:20:40;;;;;;;40.13;21.63;;;;;;;7.01;77.46;97064.78;4942459;29;20044;-78
2024/02/28 10:23:09;;;;;;;43.67;22.83;;;;;;;7.08;78.54;97065.81;4940522;29;20131;-77
2024/02/28 10:25:45;;;;;;;45.58;23.75;;;;;;;7.17;76.15;97061.50;4941311;29;20088;-78
2024/02/28 10:28:24;;;;;;;42.47;22.42;;;;;;;7.18;76.59;97055.38;4940664;29;20475;-78
2024/02/28 10:30:53;;;;;;;38.65;22.33;;;;;;;7.22;77.37;97061.91;4941605;29;20107;-78
2024/02/28 10:33:21;;;;;;;37.53;21.85;;;;;;;7.30;76.99;97066.34;4939707;29;20503;-78
2024/02/28 10:35:52;;;;;;;37.03;20.40;;;;;;;7.30;75.83;97069.72;4935530;29;20060;-78
2024/02/28 10:38:19;;;;;;;41.40;21.98;;;;;;;7.28;75.45;97071.69;4935274;29;20138;-78
2024/02/28 10:40:49;;;;;;;38.85;20.85;;;;;;;7.31;76.44;97075.75;4935343;29;20079;-78
2024/02/28 10:43:18;;;;;;;37.28;21.88;;;;;;;7.37;75.59;97072.56;4935143;29;20139;-78
2024/02/28 10:45:46;;;;;;;39.10;20.02;;;;;;;7.42;75.50;97070.34;4935165;29;20058;-78
2024/02/28 10:48:33;;;;;;;36.95;21.38;;;;;;;7.47;75.40;97060.31;4934966;29;20048;-78
2024/02/28 10:51:04;;;;;;;41.47;23.95;;;;;;;7.52;77.28;97065.03;4934917;29;20048;-78
2024/02/28 10:53:37;;;;;;;37.40;22.55;;;;;;;7.59;77.50;97060.91;4935036;29;20139;-78
2024/02/28 10:56:10;;;;;;;36.97;21.08;;;;;;;7.62;76.34;97064.00;4934882;29;20567;-78
2024/02/28 10:58:47;;;;;;;36.92;19.95;;;;;;;7.60;74.45;97060.72;4935301;29;20055;-78
2024/02/28 11:01:15;;;;;;;37.17;20.55;;;;;;;7.64;75.90;97063.84;4934785;29;20047;-78
2024/02/28 11:03:44;;;;;;;35.67;20.17;;;;;;;7.70;75.33;97071.03;4935049;29;20062;-77
2024/02/28 11:06:18;;;;;;;40.30;21.27;;;;;;;7.74;73.89;97072.38;4935084;29;20062;-78
2024/02/28 11:08:47;;;;;;;39.15;21.40;;;;;;;7.73;73.18;97085.50;4934961;29;20459;-78
2024/02/28 11:11:17;;;;;;;36.17;21.10;;;;;;;7.76;75.83;97086.00;4938257;29;20452;-77
2024/02/28 11:13:53;;;;;;;39.65;21.30;;;;;;;7.85;75.48;97073.91;4938598;29;20115;-78
2024/02/28 11:16:28;;;;;;;37.15;21.48;;;;;;;7.91;77.45;97075.06;4939050;29;20087;-77
2024/02/28 11:18:56;;;;;;;31.65;19.35;;;;;;;7.94;76.32;97075.56;4938528;29;20047;-77
2024/02/28 11:21:26;;;;;;;32.00;18.92;;;;;;;7.99;75.00;97085.50;4937869;29;20044;-78
2024/02/28 11:23:53;;;;;;;33.03;19.08;;;;;;;8.03;74.29;97081.63;4938108;29;20047;-78
2024/02/28 11:26:22;;;;;;;34.00;20.13;;;;;;;8.03;74.45;97084.22;4937980;29;20130;-78
2024/02/28 11:28:50;;;;;;;34.38;19.85;;;;;;;8.09;75.36;97085.38;4937794;29;20051;-78
2024/02/28 11:31:18;;;;;;;36.70;19.55;;;;;;;8.09;74.82;97078.44;4938299;29;20052;-77